createdAt,value
2022-08-26T00:01:53.123Z,20.13
2022-08-26T00:04:21.008Z,20.10
2022-08-26T00:06:47.650Z,20.15
2022-08-26T00:09:16.122Z,20.17
2022-08-26T00:11:43.469Z,20.29
2022-08-26T00:14:10.074Z,20.24
2022-08-26T00:16:36.974Z,20.08
2022-08-26T00:19:07.998Z,20.16
2022-08-26T00:21:34.862Z,20.17
2022-08-26T00:24:04.280Z,20.04
2022-08-26T00:26:30.969Z,19.97
2022-08-26T00:28:57.495Z,19.91
2022-08-26T00:31:25.068Z,20.08
2022-08-26T00:33:51.698Z,20.11
2022-08-26T00:36:20.218Z,20.13
2022-08-26T00:38:48.105Z,20.17
2022-08-26T00:41:15.128Z,20.14
2022-08-26T00:43:47.196Z,20.11
2022-08-26T00:46:18.962Z,20.17
2022-08-26T00:48:49.630Z,20.17
2022-08-26T00:51:22.082Z,20.16
2022-08-26T00:53:57.442Z,20.19
2022-08-26T00:56:34.694Z,20.10
2022-08-26T00:59:08.097Z,20.02
2022-08-26T01:01:35.627Z,19.94
2022-08-26T01:04:02.719Z,19.99
2022-08-26T01:06:29.900Z,19.88
2022-08-26T01:08:57.893Z,19.96
2022-08-26T01:11:25.365Z,19.97
2022-08-26T01:13:57.399Z,19.99
2022-08-26T01:16:25.590Z,19.93
2022-08-26T01:18:57.271Z,19.97
2022-08-26T01:21:29.465Z,19.98
2022-08-26T01:23:57.945Z,19.94
2022-08-26T01:26:29.984Z,19.90
2022-08-26T01:29:01.263Z,19.84
2022-08-26T01:31:33.549Z,19.85
2022-08-26T01:34:18.328Z,19.77
2022-08-26T01:36:51.354Z,19.84
2022-08-26T01:39:18.797Z,19.88
2022-08-26T01:41:47.465Z,20.01
2022-08-26T01:44:26.752Z,19.98
2022-08-26T01:46:56.396Z,19.95
2022-08-26T01:49:24.973Z,19.79
2022-08-26T01:51:55.093Z,19.95
2022-08-26T01:54:23.006Z,19.91
2022-08-26T01:56:51.484Z,19.82
2022-08-26T01:59:20.219Z,19.78
2022-08-26T02:01:48.739Z,19.82
2022-08-26T02:04:17.773Z,19.74
2022-08-26T02:06:45.170Z,19.75
2022-08-26T02:09:12.285Z,19.79
2022-08-26T02:11:39.361Z,19.87
2022-08-26T02:14:13.509Z,19.92
2022-08-26T02:16:44.878Z,19.86
2022-08-26T02:19:16.987Z,19.77
2022-08-26T02:21:45.979Z,19.82
2022-08-26T02:24:22.334Z,19.75
2022-08-26T02:26:51.250Z,19.79
2022-08-26T02:29:26.625Z,19.67
2022-08-26T02:31:55.770Z,19.61
2022-08-26T02:34:31.027Z,19.52
2022-08-26T02:36:59.823Z,19.42
2022-08-26T02:39:26.929Z,19.41
2022-08-26T02:41:53.523Z,19.44
2022-08-26T02:44:20.158Z,19.48
2022-08-26T02:46:47.475Z,19.54
2022-08-26T02:49:16.302Z,19.56
2022-08-26T02:51:43.732Z,19.45
2022-08-26T02:54:10.313Z,19.61
2022-08-26T02:56:37.451Z,19.51
2022-08-26T02:59:04.235Z,19.65
2022-08-26T03:01:34.992Z,19.43
2022-08-26T03:04:04.316Z,19.49
2022-08-26T03:06:31.017Z,19.56
2022-08-26T03:08:57.935Z,19.51
2022-08-26T03:11:26.726Z,19.58
2022-08-26T03:13:56.310Z,19.62
2022-08-26T03:16:23.168Z,19.56
2022-08-26T03:18:52.284Z,19.47
2022-08-26T03:21:20.021Z,19.41
2022-08-26T03:23:46.703Z,19.44
2022-08-26T03:26:15.344Z,19.42
2022-08-26T03:29:12.121Z,19.43
2022-08-26T03:31:38.727Z,19.37
2022-08-26T03:34:07.106Z,19.26
2022-08-26T03:36:33.720Z,19.21
2022-08-26T03:39:01.897Z,19.18
2022-08-26T03:41:29.069Z,19.16
2022-08-26T03:44:00.962Z,19.13
2022-08-26T03:46:28.249Z,19.22
2022-08-26T03:48:55.167Z,19.21
2022-08-26T03:51:21.701Z,19.27
2022-08-26T03:53:48.334Z,19.21
2022-08-26T03:56:15.252Z,19.22
2022-08-26T03:58:44.421Z,19.14
2022-08-26T04:01:12.758Z,19.12
2022-08-26T04:04:00.087Z,19.18
2022-08-26T04:06:33.495Z,19.25
2022-08-26T04:09:05.250Z,19.19
2022-08-26T04:11:34.144Z,19.09
2022-08-26T04:14:03.860Z,19.12
2022-08-26T04:16:31.431Z,19.07
2022-08-26T04:18:58.478Z,19.11
2022-08-26T04:21:26.810Z,19.03
2022-08-26T04:23:53.923Z,18.95
2022-08-26T04:26:23.086Z,19.03
2022-08-26T04:28:53.134Z,18.99
2022-08-26T04:31:20.458Z,19.05
2022-08-26T04:33:49.934Z,19.07
2022-08-26T04:36:17.574Z,19.08
2022-08-26T04:38:47.216Z,19.06
2022-08-26T04:41:15.311Z,18.99
2022-08-26T04:43:45.473Z,18.99
2022-08-26T04:46:16.156Z,19.03
2022-08-26T04:48:42.718Z,19.13
2022-08-26T04:51:10.109Z,19.25
2022-08-26T04:53:37.472Z,19.25
2022-08-26T04:56:05.335Z,19.23
2022-08-26T04:58:32.701Z,19.35
2022-08-26T05:00:59.608Z,19.36
2022-08-26T05:03:27.469Z,19.37
2022-08-26T05:05:58.526Z,19.53
2022-08-26T05:08:25.530Z,19.42
2022-08-26T05:10:57.228Z,19.50
2022-08-26T05:13:26.505Z,19.51
2022-08-26T05:15:53.652Z,19.64
2022-08-26T05:18:23.089Z,19.60
2022-08-26T05:20:54.036Z,19.65
2022-08-26T05:23:23.244Z,19.61
2022-08-26T05:25:59.310Z,19.79
2022-08-26T05:28:28.879Z,19.85
2022-08-26T05:30:55.822Z,19.90
2022-08-26T05:33:23.160Z,20.04
2022-08-26T05:35:49.789Z,20.13
2022-08-26T05:38:19.121Z,20.17
2022-08-26T05:40:49.339Z,20.36
2022-08-26T05:43:21.468Z,20.44
2022-08-26T05:45:50.681Z,20.44
2022-08-26T05:48:22.681Z,20.56
2022-08-26T05:50:53.151Z,20.73
2022-08-26T05:53:21.729Z,20.91
2022-08-26T05:55:52.065Z,21.08
2022-08-26T05:58:21.154Z,21.24
2022-08-26T06:01:10.448Z,21.27
2022-08-26T06:03:40.475Z,21.31
2022-08-26T06:06:13.476Z,20.88
2022-08-26T06:08:40.409Z,20.82
2022-08-26T06:11:18.673Z,20.80
2022-08-26T06:13:46.200Z,20.92
2022-08-26T06:16:22.353Z,20.78
2022-08-26T06:18:51.022Z,20.60
2022-08-26T06:21:34.085Z,20.73
2022-08-26T06:24:27.014Z,20.75
2022-08-26T06:26:57.794Z,20.87
2022-08-26T06:29:28.583Z,20.95
2022-08-26T06:31:57.278Z,21.09
2022-08-26T06:34:26.610Z,21.25
2022-08-26T06:36:58.641Z,21.06
2022-08-26T06:39:25.288Z,21.19
2022-08-26T06:41:52.244Z,21.29
2022-08-26T06:44:19.796Z,21.14
2022-08-26T06:46:50.278Z,21.17
2022-08-26T06:49:17.742Z,21.17
2022-08-26T06:51:44.764Z,21.04
2022-08-26T06:54:11.540Z,21.10
2022-08-26T06:56:41.750Z,21.26
2022-08-26T06:59:09.463Z,21.23
2022-08-26T07:01:43.018Z,21.20
2022-08-26T07:04:10.811Z,21.33
2022-08-26T07:06:40.606Z,21.50
2022-08-26T07:09:10.007Z,21.22
2022-08-26T07:11:38.782Z,21.41
2022-08-26T07:14:06.208Z,21.23
2022-08-26T07:16:33.932Z,21.13
2022-08-26T07:19:10.922Z,21.34
2022-08-26T07:21:40.450Z,21.34
2022-08-26T07:24:08.726Z,21.44
2022-08-26T07:26:37.753Z,21.47
2022-08-26T07:29:04.531Z,21.45
2022-08-26T07:31:39.453Z,21.25
2022-08-26T07:34:09.375Z,21.27
2022-08-26T07:36:36.442Z,21.30
2022-08-26T07:39:03.276Z,21.46
2022-08-26T07:44:01.364Z,21.46
2022-08-26T07:46:30.243Z,21.56
2022-08-26T07:48:57.979Z,21.45
2022-08-26T07:51:26.125Z,21.38
2022-08-26T07:53:54.257Z,21.47
2022-08-26T07:56:23.259Z,21.50
2022-08-26T07:58:51.876Z,21.48
2022-08-26T08:01:24.942Z,21.44
2022-08-26T08:03:53.803Z,21.43
2022-08-26T08:06:27.014Z,21.16
2022-08-26T08:08:55.206Z,21.13
2022-08-26T08:11:23.607Z,21.09
2022-08-26T08:13:52.335Z,21.06
2022-08-26T08:16:24.859Z,21.06
2022-08-26T08:18:53.426Z,21.12
2022-08-26T08:21:23.931Z,21.16
2022-08-26T08:23:55.493Z,21.21
2022-08-26T08:26:23.468Z,21.31
2022-08-26T08:28:50.943Z,21.13
2022-08-26T08:34:14.216Z,21.25
2022-08-26T08:36:40.757Z,21.22
2022-08-26T08:39:08.248Z,21.00
2022-08-26T08:41:35.719Z,20.89
2022-08-26T08:44:02.735Z,20.83
2022-08-26T08:46:30.752Z,20.73
2022-08-26T08:48:59.950Z,20.74
2022-08-26T08:51:39.814Z,20.48
2022-08-26T08:54:07.818Z,20.44
2022-08-26T08:56:52.935Z,20.47
2022-08-26T08:59:24.126Z,20.35
2022-08-26T09:02:04.804Z,20.37
2022-08-26T09:04:45.224Z,20.36
2022-08-26T09:07:18.489Z,20.40
2022-08-26T09:09:50.177Z,20.51
2022-08-26T09:12:29.425Z,20.51
2022-08-26T09:15:12.003Z,20.41
2022-08-26T09:17:59.909Z,20.28
2022-08-26T09:20:52.635Z,20.24
2022-08-26T09:23:22.838Z,20.14
2022-08-26T09:25:55.737Z,20.23
2022-08-26T09:28:24.300Z,20.17
2022-08-26T09:31:11.693Z,20.08
2022-08-26T09:33:40.261Z,20.20
2022-08-26T09:36:18.233Z,20.23
2022-08-26T09:38:46.102Z,20.27
2022-08-26T09:41:31.754Z,20.44
2022-08-26T09:44:17.121Z,20.49
2022-08-26T09:46:55.584Z,20.38
2022-08-26T09:49:37.904Z,20.58
2022-08-26T09:52:07.695Z,20.57
2022-08-26T09:54:35.777Z,20.51
2022-08-26T09:57:19.401Z,20.52
2022-08-26T09:59:47.211Z,20.55
2022-08-26T10:02:36.312Z,20.58
2022-08-26T10:05:09.243Z,20.54
2022-08-26T10:07:49.761Z,20.61
2022-08-26T10:10:39.678Z,20.62
2022-08-26T10:13:17.363Z,20.75
2022-08-26T10:16:02.222Z,20.73
2022-08-26T10:18:37.327Z,20.86
2022-08-26T10:21:10.849Z,20.92
2022-08-26T10:23:42.847Z,21.04
2022-08-26T10:26:30.693Z,21.21
2022-08-26T10:29:25.953Z,21.18
2022-08-26T10:32:02.698Z,21.25
2022-08-26T10:34:32.491Z,21.19
2022-08-26T10:37:14.355Z,21.45
2022-08-26T10:39:57.207Z,21.59
2022-08-26T10:42:53.253Z,21.73
2022-08-26T10:45:26.020Z,21.92
2022-08-26T10:48:11.002Z,21.88
2022-08-26T10:50:41.881Z,21.84
2022-08-26T10:53:17.164Z,21.49
2022-08-26T10:55:54.014Z,21.68
2022-08-26T10:58:26.668Z,21.87
2022-08-26T11:01:29.482Z,21.45
2022-08-26T11:04:09.904Z,21.47
2022-08-26T11:06:37.111Z,21.67
2022-08-26T11:09:06.673Z,21.71
2022-08-26T11:11:42.401Z,21.77
2022-08-26T11:14:34.236Z,21.65
2022-08-26T11:17:55.441Z,21.71
2022-08-26T11:20:28.549Z,21.84
2022-08-26T11:22:59.525Z,21.92
2022-08-26T11:25:30.777Z,22.13
2022-08-26T11:28:01.009Z,22.20
2022-08-26T11:30:36.721Z,21.91
2022-08-26T11:33:03.392Z,21.84
2022-08-26T11:35:34.259Z,22.08
2022-08-26T11:38:15.785Z,22.11
2022-08-26T11:40:42.611Z,22.63
2022-08-26T11:43:23.027Z,22.95
2022-08-26T11:45:59.764Z,22.80
2022-08-26T11:48:26.310Z,22.57
2022-08-26T11:51:09.631Z,22.98
2022-08-26T11:53:38.956Z,23.42
2022-08-26T11:56:33.994Z,23.77
2022-08-26T11:59:03.958Z,23.64
2022-08-26T12:01:44.587Z,23.15
2022-08-26T12:04:26.557Z,23.51
2022-08-26T12:06:53.473Z,23.93
2022-08-26T12:09:30.675Z,24.32
2022-08-26T12:12:18.224Z,24.61
2022-08-26T12:14:45.367Z,25.01
2022-08-26T12:17:16.257Z,25.40
2022-08-26T12:19:43.661Z,25.38
2022-08-26T12:22:34.590Z,25.39
2022-08-26T12:25:08.513Z,25.52
2022-08-26T12:27:43.632Z,25.65
2022-08-26T12:30:20.386Z,25.70
2022-08-26T12:32:56.563Z,25.69
2022-08-26T12:35:25.469Z,25.80
2022-08-26T12:37:54.316Z,25.68
2022-08-26T12:40:43.819Z,25.67
2022-08-26T12:43:13.547Z,25.61
2022-08-26T12:45:44.353Z,25.76
2022-08-26T12:48:20.677Z,25.71
2022-08-26T12:50:52.286Z,25.27
2022-08-26T12:53:21.509Z,25.28
2022-08-26T12:55:52.534Z,25.07
2022-08-26T12:58:34.832Z,25.10
2022-08-26T13:01:04.577Z,25.21
2022-08-26T13:03:37.690Z,25.43
2022-08-26T13:06:24.031Z,25.51
2022-08-26T13:09:08.842Z,25.18
2022-08-26T13:11:41.412Z,25.33
2022-08-26T13:14:18.430Z,25.43
2022-08-26T13:16:51.827Z,25.65
2022-08-26T13:19:22.107Z,25.81
2022-08-26T13:21:52.922Z,25.85
2022-08-26T13:24:35.609Z,25.97
2022-08-26T13:27:03.886Z,26.11
2022-08-26T13:29:30.860Z,26.14
2022-08-26T13:31:58.312Z,26.30
2022-08-26T13:34:24.866Z,26.26
2022-08-26T13:36:54.468Z,26.29
2022-08-26T13:39:22.171Z,26.32
2022-08-26T13:41:49.718Z,25.83
2022-08-26T13:44:17.629Z,26.09
2022-08-26T13:49:17.348Z,25.97
2022-08-26T13:51:43.991Z,25.95
2022-08-26T13:54:11.200Z,25.73
2022-08-26T13:56:37.765Z,25.66
2022-08-26T13:59:06.451Z,25.91
2022-08-26T14:01:35.089Z,26.08
2022-08-26T14:04:03.051Z,26.21
2022-08-26T14:06:30.031Z,26.17
2022-08-26T14:08:56.910Z,26.33
2022-08-26T14:11:24.950Z,26.31
2022-08-26T14:13:51.601Z,26.36
2022-08-26T14:16:26.088Z,26.36
2022-08-26T14:18:53.510Z,26.56
2022-08-26T14:21:20.916Z,26.79
2022-08-26T14:23:47.954Z,26.73
2022-08-26T14:26:28.594Z,26.39
2022-08-26T14:28:59.970Z,26.39
2022-08-26T14:31:29.588Z,26.55
2022-08-26T14:33:58.817Z,26.60
2022-08-26T14:36:28.317Z,26.31
2022-08-26T14:38:57.076Z,26.55
2022-08-26T14:41:25.629Z,26.66
2022-08-26T14:44:00.263Z,26.72
2022-08-26T14:46:30.268Z,26.61
2022-08-26T14:49:03.542Z,26.57
2022-08-26T14:51:31.052Z,26.47
2022-08-26T14:54:12.691Z,26.62
2022-08-26T14:56:51.351Z,26.56
2022-08-26T14:59:21.163Z,26.57
2022-08-26T15:01:48.118Z,26.69
2022-08-26T15:04:15.656Z,26.71
2022-08-26T15:06:42.426Z,26.80
2022-08-26T15:09:09.301Z,26.75
2022-08-26T15:11:35.941Z,26.86
2022-08-26T15:14:02.896Z,26.87
2022-08-26T15:16:29.746Z,26.82
2022-08-26T15:18:56.920Z,26.85
2022-08-26T15:21:24.511Z,26.64
2022-08-26T15:23:52.195Z,26.53
2022-08-26T15:26:20.093Z,26.86
2022-08-26T15:28:46.749Z,26.92
2022-08-26T15:31:13.450Z,26.49
2022-08-26T15:33:40.420Z,26.54
2022-08-26T15:36:07.834Z,26.58
2022-08-26T15:38:38.321Z,26.81
2022-08-26T15:41:08.626Z,26.74
2022-08-26T15:43:37.017Z,26.58
2022-08-26T15:46:04.212Z,26.54
2022-08-26T15:48:30.967Z,26.23
2022-08-26T15:51:02.931Z,25.76
2022-08-26T15:53:32.052Z,25.76
2022-08-26T15:56:00.166Z,24.99
2022-08-26T15:58:28.334Z,24.84
2022-08-26T16:00:56.433Z,24.60
2022-08-26T16:03:23.583Z,24.48
2022-08-26T16:05:50.301Z,24.42
2022-08-26T16:08:17.332Z,24.45
2022-08-26T16:10:50.017Z,24.29
2022-08-26T16:13:19.669Z,24.16
2022-08-26T16:15:47.694Z,23.94
2022-08-26T16:18:15.713Z,23.74
2022-08-26T16:21:06.533Z,23.98
2022-08-26T16:23:38.453Z,23.92
2022-08-26T16:26:17.444Z,23.75
2022-08-26T16:28:44.017Z,23.93
2022-08-26T16:31:11.695Z,23.72
2022-08-26T16:33:38.402Z,23.56
2022-08-26T16:36:06.141Z,23.62
2022-08-26T16:38:34.259Z,23.46
2022-08-26T16:41:01.204Z,23.71
2022-08-26T16:43:28.473Z,23.61
2022-08-26T16:45:55.234Z,23.34
2022-08-26T16:48:21.955Z,22.93
2022-08-26T16:50:49.376Z,22.65
2022-08-26T16:53:16.176Z,22.24
2022-08-26T16:55:47.639Z,22.25
2022-08-26T16:58:14.770Z,22.10
2022-08-26T17:00:41.560Z,21.94
2022-08-26T17:03:08.897Z,22.00
2022-08-26T17:05:36.319Z,21.66
2022-08-26T17:08:03.857Z,21.66
2022-08-26T17:10:30.977Z,21.50
2022-08-26T17:12:58.078Z,21.39
2022-08-26T17:15:25.550Z,21.39
2022-08-26T17:17:53.127Z,21.36
2022-08-26T17:20:21.525Z,21.38
2022-08-26T17:22:49.952Z,21.30
2022-08-26T17:25:24.494Z,21.44
2022-08-26T17:27:51.197Z,21.45
2022-08-26T17:30:18.339Z,21.08
2022-08-26T17:32:45.568Z,21.29
2022-08-26T17:35:13.975Z,21.59
2022-08-26T17:37:41.075Z,21.74
2022-08-26T17:40:11.890Z,21.84
2022-08-26T17:42:39.471Z,21.87
2022-08-26T17:45:06.854Z,21.80
2022-08-26T17:47:33.965Z,21.85
2022-08-26T17:50:01.387Z,21.88
2022-08-26T17:52:28.771Z,21.86
2022-08-26T17:54:58.991Z,21.89
2022-08-26T17:57:26.531Z,21.92
2022-08-26T17:59:54.255Z,21.95
2022-08-26T18:02:21.403Z,21.92
2022-08-26T18:04:48.418Z,21.78
2022-08-26T18:07:15.749Z,21.72
2022-08-26T18:09:42.613Z,21.75
2022-08-26T18:12:09.840Z,21.68
2022-08-26T18:14:36.427Z,21.63
2022-08-26T18:17:03.838Z,21.60
2022-08-26T18:19:31.390Z,21.58
2022-08-26T18:21:58.633Z,21.62
2022-08-26T18:24:25.383Z,21.58
2022-08-26T18:26:52.069Z,21.41
2022-08-26T18:29:19.701Z,21.39
2022-08-26T18:31:46.558Z,21.10
2022-08-26T18:34:15.420Z,20.68
2022-08-26T18:36:42.951Z,20.82
2022-08-26T18:39:10.406Z,20.63
2022-08-26T18:41:48.481Z,20.56
2022-08-26T18:44:17.321Z,20.57
2022-08-26T18:46:46.629Z,20.25
2022-08-26T18:49:16.378Z,20.28
2022-08-26T18:51:44.563Z,20.38
2022-08-26T18:54:12.487Z,20.33
2022-08-26T18:56:41.020Z,20.37
2022-08-26T18:59:09.365Z,20.30
2022-08-26T19:01:38.900Z,20.21
2022-08-26T19:04:07.947Z,20.30
2022-08-26T19:06:37.495Z,20.38
2022-08-26T19:09:07.047Z,20.37
2022-08-26T19:11:42.837Z,20.35
2022-08-26T19:14:13.994Z,20.33
2022-08-26T19:16:43.982Z,20.27
2022-08-26T19:19:11.360Z,20.20
2022-08-26T19:21:39.304Z,20.23
2022-08-26T19:24:15.700Z,20.28
2022-08-26T19:26:45.735Z,20.23
2022-08-26T19:29:14.061Z,20.13
2022-08-26T19:31:44.085Z,20.25
2022-08-26T19:34:13.775Z,20.29
2022-08-26T19:36:44.856Z,20.28
2022-08-26T19:39:14.285Z,20.32
2022-08-26T19:41:41.788Z,20.35
2022-08-26T19:44:35.063Z,20.37
2022-08-26T19:47:04.168Z,20.41
2022-08-26T19:49:31.685Z,20.36
2022-08-26T19:51:58.270Z,20.27
2022-08-26T19:54:25.545Z,20.26
2022-08-26T19:56:52.364Z,20.39
2022-08-26T19:59:18.914Z,20.37
2022-08-26T20:01:45.537Z,20.14
2022-08-26T20:04:12.591Z,20.17
2022-08-26T20:06:39.980Z,19.98
2022-08-26T20:09:07.034Z,19.96
2022-08-26T20:11:34.098Z,20.04
2022-08-26T20:14:03.585Z,20.08
2022-08-26T20:16:30.512Z,19.98
2022-08-26T20:19:16.046Z,20.00
2022-08-26T20:21:43.205Z,19.95
2022-08-26T20:24:14.069Z,19.98
2022-08-26T20:26:42.909Z,19.92
2022-08-26T20:29:12.331Z,19.92
2022-08-26T20:31:39.550Z,19.86
2022-08-26T20:34:06.973Z,19.78
2022-08-26T20:36:34.253Z,19.53
2022-08-26T20:39:00.888Z,19.60
2022-08-26T20:41:28.157Z,19.67
2022-08-26T20:43:55.512Z,19.70
2022-08-26T20:46:24.881Z,19.63
2022-08-26T20:48:53.663Z,19.47
2022-08-26T20:51:23.578Z,19.46
2022-08-26T20:53:50.874Z,19.41
2022-08-26T20:56:24.625Z,19.41
2022-08-26T20:58:54.026Z,19.37
2022-08-26T21:01:24.882Z,19.43
2022-08-26T21:03:56.878Z,19.21
2022-08-26T21:06:24.027Z,19.25
2022-08-26T21:08:50.850Z,19.07
2022-08-26T21:11:18.372Z,19.13
2022-08-26T21:14:03.812Z,19.10
2022-08-26T21:16:31.953Z,19.04
2022-08-26T21:19:00.466Z,18.85
2022-08-26T21:21:27.615Z,18.81
2022-08-26T21:23:54.836Z,18.85
2022-08-26T21:26:21.750Z,18.85
2022-08-26T21:28:49.615Z,18.87
2022-08-26T21:31:20.846Z,18.82
2022-08-26T21:33:47.565Z,18.81
2022-08-26T21:36:15.445Z,18.81
2022-08-26T21:38:42.356Z,18.85
2022-08-26T21:41:20.496Z,18.85
2022-08-26T21:43:48.530Z,18.94
2022-08-26T21:46:18.067Z,19.00
2022-08-26T21:48:51.036Z,18.90
2022-08-26T21:51:20.230Z,18.97
2022-08-26T21:53:46.925Z,18.93
2022-08-26T21:56:18.466Z,18.99
2022-08-26T21:58:45.585Z,18.71
2022-08-26T22:01:16.169Z,18.84
2022-08-26T22:03:47.671Z,18.89
2022-08-26T22:06:17.462Z,18.95
2022-08-26T22:08:44.080Z,18.93
2022-08-26T22:11:11.433Z,18.89
2022-08-26T22:13:39.975Z,18.70
2022-08-26T22:16:07.748Z,18.87
2022-08-26T22:18:35.437Z,18.94
2022-08-26T22:21:06.068Z,19.04
2022-08-26T22:23:33.287Z,18.96
2022-08-26T22:26:00.272Z,18.99
2022-08-26T22:28:27.393Z,18.75
2022-08-26T22:30:55.610Z,18.85
2022-08-26T22:33:22.985Z,18.85
2022-08-26T22:35:51.266Z,18.76
2022-08-26T22:38:18.843Z,18.69
2022-08-26T22:40:50.417Z,18.84
2022-08-26T22:43:18.316Z,18.87
2022-08-26T22:45:47.962Z,18.87
2022-08-26T22:48:17.908Z,18.85
2022-08-26T22:50:47.189Z,18.84
2022-08-26T22:53:15.745Z,18.94
2022-08-26T22:55:43.517Z,18.80
2022-08-26T22:58:12.197Z,18.87
2022-08-26T23:00:40.020Z,19.00
2022-08-26T23:03:07.937Z,18.86
2022-08-26T23:05:35.451Z,18.59
2022-08-26T23:08:02.404Z,18.73
2022-08-26T23:10:29.543Z,18.83
2022-08-26T23:12:56.223Z,18.78
2022-08-26T23:15:22.821Z,18.55
2022-08-26T23:17:58.317Z,18.54
2022-08-26T23:20:27.031Z,18.59
2022-08-26T23:22:54.223Z,18.70
2022-08-26T23:25:20.909Z,18.83
2022-08-26T23:27:48.603Z,18.62
2022-08-26T23:30:19.625Z,18.66
2022-08-26T23:32:46.814Z,18.84
2022-08-26T23:35:14.126Z,18.78
2022-08-26T23:37:44.624Z,18.70
2022-08-26T23:40:17.838Z,18.71
2022-08-26T23:42:44.444Z,18.70
2022-08-26T23:45:13.888Z,18.63
2022-08-26T23:47:41.285Z,18.53
2022-08-26T23:50:08.988Z,18.62
2022-08-26T23:52:54.184Z,18.61
2022-08-26T23:55:20.826Z,18.60
2022-08-26T23:57:47.649Z,18.68
